Aviation Digital Data Service (ADDS)

Output produced by METARs form (2345 UTC 23 May 2022)
found at http://www.aviationweather.gov/metar/data/
 
KSAC 232324Z 2400/2424 30010G17KT P6SM FEW250 
     FM240400 24007KT P6SM FEW250 
     FM241200 33008KT P6SM FEW250 
     FM241800 34010G18KT P6SM FEW250
       
KSAF 232336Z 2400/2424 31013G23KT P6SM VCSH BKN100 
     FM240200 34008KT P6SM BKN090 
     FM241600 30015G25KT P6SM SCT090 
     FM242100 32020G35KT P6SM BKN100
       
KSAN 232340Z 2400/2506 23008KT P6SM BKN017 
     FM240200 VRB04KT P6SM OVC010 
     FM241600 21004KT P6SM BKN012 
     FM241900 24009KT P6SM SCT017 
     FM250100 VRB04KT P6SM BKN012
       
KSAT 232328Z 2400/2506 12011KT P6SM -SHRA SCT050 BKN100 OVC150 
     FM240400 13010KT P6SM -SHRA OVC019 
     TEMPO 2405/2409 VRB30KT 2SM +TSRA BR OVC007CB 
     FM241000 15009KT P6SM VCSH SCT010 BKN050 
     FM241800 18013KT P6SM VCSH SCT035 OVC050
       
KSAV 232336Z 2400/2424 18006KT P6SM SCT030 OVC100 
     TEMPO 2400/2401 5SM SHRA BKN030 
     FM241400 20008KT P6SM SCT025 BKN150 
     FM241900 19010KT P6SM SCT035
       
KSBA 232337Z 2400/2424 21006KT P6SM SCT010 
     FM240300 12005KT P6SM SCT006 
     FM240700 10005KT 5SM BR OVC006 
     FM241700 16006KT 6SM HZ BKN010 
     FM241900 20008KT P6SM SCT010 
     FM242200 24008KT P6SM SCT010
       
KSBD 232340Z 2400/2424 25010KT 5SM HZ SKC 
     FM240400 VRB05KT 5SM BR SKC 
     FM242100 25009KT P6SM FEW250
       
KSBM 232339Z 2400/2424 06005KT P6SM BKN150 
     FM241300 06004KT P6SM BKN150 
     FM241600 10007KT P6SM FEW045 SCT150
       
KSBN 232320Z 2400/2424 08007KT P6SM SCT250
       
KSBP 232337Z 2400/2424 31018KT P6SM SKC 
     FM240400 VRB03KT P6SM SKC 
     FM242100 30010KT P6SM SKC
       
KSBY 232320Z 2400/2424 10006KT P6SM BKN120 
     FM240300 VRB03KT P6SM VCSH OVC090 
     FM240600 VRB03KT 6SM -SHRA OVC070 
     FM241400 07010KT 6SM -SHRA OVC030 
     FM241700 08011G18KT 6SM -SHRA OVC012
       
KSCK 232324Z 2400/2424 29012G18KT P6SM FEW250 
     FM240300 28011KT P6SM FEW250 
     FM241700 32012G18KT P6SM FEW250
       
KSDF 232339Z 2400/2506 04008KT P6SM SCT050 BKN100 
     FM240300 03006KT P6SM BKN080 
     FM241300 06007KT P6SM SCT025 BKN050 
     FM241900 08009KT P6SM SCT050
       
KSDL 232337Z 2400/2424 25008G17KT P6SM FEW070 BKN250 
     FM240200 21006KT P6SM SCT250 
     FM240400 VRB05KT P6SM FEW250 
     FM242000 26009G18KT P6SM SKC
       
KSDY 232320Z 2400/2424 15007KT P6SM SCT100 
     FM240100 VRB03KT P6SM SKC 
     FM241800 12008KT P6SM SCT080
       
KSEA 232339Z 2400/2506 31008KT P6SM SCT050 SCT250 
     FM240700 VRB04KT P6SM SCT035 BKN050 
     FM241200 19006KT P6SM OVC035 
     FM241800 23005KT P6SM BKN050
       
KSEZ 232320Z 2400/2424 19009G18KT P6SM SCT120 
     FM240400 30007KT P6SM FEW250 
     FM241100 03010KT P6SM SKC 
     FM241800 22008G14KT P6SM SKC 
     FM242000 27010G16KT P6SM SKC
       
KSFB 232336Z 2400/2424 12009KT P6SM FEW050 
     FM240200 VRB04KT P6SM FEW050 
     FM241500 13011KT P6SM SCT040 SCT250
       
KSFF 232334Z 2400/2424 24010KT P6SM -SHRA BKN070 BKN100 
     TEMPO 2401/2403 6SM -TSRA BKN050CB OVC090 
     FM240400 22005KT P6SM BKN070 
     FM241000 16003KT P6SM VCSH BKN025 BKN060 
     FM241400 VRB03KT P6SM SCT020 BKN070 
     FM241700 20006KT P6SM SCT025 BKN070
       
KSFO 232340Z 2400/2506 29023KT P6SM FEW200 
     FM240300 29018KT P6SM SKC 
     FM240600 29012KT P6SM SKC 
     FM241300 29005KT P6SM SKC WS020/02025KT 
     FM241700 34006KT P6SM SKC 
     FM242000 31014KT P6SM SKC 
     FM242300 28018G26KT P6SM SKC 
     FM250300 30013KT P6SM SKC
       
KSGF 232320Z 2400/2424 12012KT P6SM VCSH OVC025 
     FM240500 12009KT P6SM OVC035 
     FM241200 12011G18KT P6SM BKN035 
     PROB30 2415/2417 4SM -SHRA BR OVC025 
     FM241700 13013G21KT 4SM -SHRA BR OVC025 
     TEMPO 2420/2424 2SM -TSRA BR OVC007CB
       
KSGJ 232336Z 2400/2424 14011KT P6SM FEW050 SCT250 
     FM240600 15006KT P6SM SCT015 BKN035 
     FM241500 14015KT P6SM SCT025 BKN040
       
KSGU 232320Z 2400/2424 01011KT P6SM FEW250 
     FM240100 03012G20KT P6SM FEW250 
     FM240600 08005KT P6SM FEW250 
     FM241200 VRB05KT P6SM FEW250 
     FM242000 30007KT P6SM FEW250
       
KSHR 232320Z 2400/2424 24016KT P6SM VCSH OVC080 
     FM240300 VRB05KT P6SM SCT100 
     FM241900 VRB06KT P6SM VCSH SCT080
       
KSHV 232339Z 2400/2424 09008KT P6SM OVC015 
     FM241100 10007KT P6SM OVC007 
     FM241500 13009KT P6SM SCT008 OVC013 
     FM241700 15010KT P6SM VCTS BKN020CB
       
KSJC 232340Z 2400/2424 33013KT P6SM SCT120 
     FM240300 31008KT P6SM SKC 
     FM241000 VRB03KT P6SM SKC 
     FM242000 31009KT P6SM SKC
       
KSJT 232337Z 2400/2424 13007KT P6SM -TSRA SCT035 BKN060CB 
     FM240100 13009KT P6SM SCT050 BKN090 
     FM240200 12009KT P6SM SCT060 BKN120 
     FM241000 15012KT P6SM SCT020 
     TEMPO 2410/2414 BKN020 
     FM241500 19012G19KT P6SM SCT040 
     FM241900 19014G21KT P6SM SCT060
       
TAF AMD KSKA 232024Z 2320/2501 23012KT 9999 FEW060 SCT120 BKN200 QNH3004INS 
     BECMG 2321/2322 23012G18KT 9999 VCSH SCT035 SCT060 BKN120 QNH2998INS 
     TEMPO 2322/2403 VRB15G25KT 6000 -TSRA BKN035CB BKN060 OVC120 610606 
     BECMG 2402/2403 21012KT 9999 VCTS BKN035CB BKN060 610606 QNH2997INS 
     BECMG 2405/2406 18006KT 9999 NSW BKN070 620705 QNH2998INS 
     BECMG 2412/2413 20009KT 9999 BCFG SCT015 BKN070 620702 QNH3003INS 
     BECMG 2417/2418 22012KT 9999 NSW FEW070 BKN120 QNH3002INS TX20/2323Z
TN05/2411Z
       
TAF AMD KSKF 231915Z 2319/2500 11010G15KT 9999 SCT040 BKN150 QNH2977INS 
     TEMPO 2322/2400 8000 -TSRA SCT025CB BKN060 BKN150 
     BECMG 2323/2400 14012G18KT 9000 -SHRA VCTS SCT030CB BKN080 OVC180
QNH2967INS 
     TEMPO 2403/2409 VRB30G50KT 1600 +TSRA BKN007 BKN020CB OVC080 
     BECMG 2410/2411 VRB06KT 9999 NSW SCT010 BKN120 OVC250 QNH2972INS 
     TEMPO 2410/2414 BKN010 
     BECMG 2415/2416 17010G15KT 9999 BKN025 QNH2960INS TX31/2321Z TN18/2409Z
       
KSLC 232320Z 2400/2506 32009G18KT P6SM FEW080 BKN250 
     FM240400 15004KT P6SM SCT250 
     FM241600 34004KT P6SM SCT150 
     FM241900 34011G21KT P6SM FEW100 FEW250
       
KSLE 232340Z 2400/2424 28007KT P6SM SCT070 
     FM240700 VRB03KT P6SM SCT070 BKN120
       
TAF AMD KSLI 232246Z 2322/2503 VRB06KT 9999 SCT020 QNH2980INS 
     BECMG 2406/2407 VRB06KT 8000 BR BKN010 QNH2980INS 
     BECMG 2416/2417 VRB06KT 8000 BR SCT002 QNH2975INS TX20/2323Z TN13/2414Z
       
KSLK 232321Z 2400/2424 06008KT P6SM SCT050 SCT150
       
KSLN 232320Z 2400/2424 13015G22KT P6SM VCSH OVC110 
     FM240700 07007KT 6SM SHRA BR OVC028 
     FM240900 06008KT 4SM SHRA BR OVC010 
     FM241200 04010KT 3SM +SHRA BR OVC005 
     FM241700 04013KT 2SM +SHRA BR OVC005
       
KSME 232320Z 2400/2424 03008KT P6SM OVC009 
     FM240400 VRB04KT P6SM BKN015 
     FM240700 00000KT 5SM BR BKN003 
     TEMPO 2409/2412 1/2SM FG 
     FM241400 VRB03KT P6SM BKN007 
     FM241800 VRB03KT P6SM SCT025
       
KSMF 232324Z 2400/2424 31009KT P6SM FEW250 
     FM240500 23007KT P6SM FEW250 
     FM241000 34009KT P6SM FEW250 
     FM241800 33010G18KT P6SM FEW250
       
KSMN 232324Z 2400/2424 32008KT P6SM BKN070 
     FM240100 29012KT P6SM BKN100 
     FM240800 01005KT P6SM VCSH BKN050 OVC080 
     FM241500 02005KT P6SM BKN080
       
KSMO 232337Z 2400/2424 23008KT P6SM BKN015 
     FM240300 VRB03KT P6SM OVC010 
     FM241900 25008KT P6SM SCT016
       
KSMX 232337Z 2400/2424 30015KT 6SM HZ SKC 
     FM240400 VRB03KT P6SM SKC 
     FM241000 VRB03KT 4SM BR VCFG FEW003 
     FM241500 VRB03KT P6SM SKC 
     FM242100 30010KT P6SM SKC
       
KSNA 232340Z 2400/2424 21008KT P6SM SCT017 
     FM240200 20006KT P6SM BKN012 
     FM240600 VRB04KT P6SM OVC010 
     FM241800 22009KT P6SM SCT018
       
KSNS 232340Z 2400/2424 30011KT P6SM SKC 
     FM240500 29008KT P6SM FEW009 
     FM240900 VRB03KT P6SM SCT006 
     FM241600 31006KT P6SM FEW008 
     FM242100 28011KT P6SM SKC
       
KSNY 232327Z 2400/2424 09010KT P6SM SCT025 
     FM240500 09008KT P6SM SCT009 
     FM240700 14006KT 5SM BR VCFG BKN005 
     FM241000 VRB06KT 1/4SM FG BKN003 
     FM241300 04010KT 2SM BR BKN010 OVC015 
     FM241800 05012KT P6SM OVC020
       
KSPS 232324Z 2400/2424 09009KT P6SM VCTS OVC007CB 
     TEMPO 2411/2415 3SM TSRA BR BKN007 OVC015CB 
     FM241500 12011KT 4SM -RA BR OVC007 
     FM241700 14012G18KT 6SM -RA BR OVC010
       
KSRQ 232340Z 2400/2424 28008KT P6SM VCTS SCT040CB BKN250 
     FM240100 VRB05KT P6SM VCTS SCT040CB BKN080 
     FM240300 10005KT P6SM FEW030 BKN250 
     FM241400 13009KT P6SM SCT030 BKN250 
     FM241700 18010KT P6SM SCT050 BKN250 
     FM241900 23012KT P6SM SCT060 BKN250
       
TAF KSSC 232300Z 2323/2505 10009KT 8000 -SHRA VCTS BKN030CB OVC090 QNH3000INS 
     TEMPO 2323/2401 22018G31KT 3200 TSRA SCT015 BKN025CB 
     BECMG 2404/2405 20006KT 9999 NSW BKN012 OVC030 QNH2999INS 
     TEMPO 2410/2413 4800 BR BKN007 
     BECMG 2415/2416 26009KT 9999 FEW035 SCT100 BKN200 QNH3003INS 
     BECMG 2501/2502 04009KT 9999 VCTS SCT020CB BKN080 OVC120 QNH3010INS
TX27/2420Z TN20/2410Z
       
KSSF 232328Z 2400/2424 09007KT P6SM -SHRA SCT050 BKN100 OVC150 
     FM240400 13010KT P6SM -SHRA OVC019 
     TEMPO 2405/2409 VRB30KT 2SM +TSRA OVC009CB 
     FM241100 14010KT P6SM VCSH SCT012 BKN050
       
KSTC 232320Z 2400/2424 16005KT P6SM SCT250 
     FM241800 13006KT P6SM SCT250 
     FM242200 12008KT P6SM BKN200
       
KSTL 232324Z 2400/2506 08007KT P6SM OVC090 
     FM241800 10010G18KT P6SM BKN040 
     FM242300 10011KT P6SM SCT060
       
KSTS 232340Z 2400/2424 34010G15KT P6SM SKC 
     FM240600 33005KT P6SM SKC WS005/34030KT 
     FM242100 20010KT P6SM SKC
       
KSUA 232336Z 2400/2424 12011KT P6SM FEW035 
     FM240200 12006KT P6SM SCT025 
     FM241400 12013KT P6SM SCT030 
     FM241600 12014G20KT P6SM SCT035 AMD NOT SKED
       
KSUN 232321Z 2400/2506 14010KT P6SM VCSH SCT050 BKN200 
     FM240200 32008KT P6SM SKC 
     FM241500 33005KT P6SM SKC 
     FM250300 31008KT P6SM BKN120 AMD LTD TO CLD VIS AND WIND 2406/2414
       
KSUS 232324Z 2400/2424 06006KT P6SM OVC090 
     FM241500 09007KT P6SM BKN045 
     FM242000 10010G17KT P6SM BKN040
       
TAF AMD KSUU 232255Z 2322/2501 23015G25KT 9999 FEW250 QNH2986INS 
     BECMG 2403/2404 23012G18KT 9999 FEW250 QNH2977INS 
     BECMG 2410/2411 32010G15KT 9999 SKC QNH2976INS TX34/2323Z TN12/2414Z
       
KSUX 232324Z 2400/2424 12010KT P6SM BKN070 
     FM240500 VRB05KT P6SM BKN080 
     FM241400 12012KT P6SM BKN070 
     FM241800 12013G20KT P6SM VCSH SCT025 OVC040 
     FM242200 12013G20KT 3SM -SHRA BR OVC025
       
KSWF 232322Z 2400/2506 03006KT P6SM BKN200 
     FM240200 06005KT P6SM BKN100 
     FM240600 VRB04KT P6SM BKN100 
     FM241300 08005KT P6SM BKN100 
     FM241700 13006KT P6SM BKN100 
     FM242100 16006KT P6SM BKN100 
     FM250000 VRB03KT P6SM SCT250 AMD NOT SKED
       
KSYR 232329Z 2400/2424 34006KT P6SM FEW050 SCT150 OVC200 
     FM242000 13005KT P6SM SCT070
       
TAF KSZL 231900Z 2319/2501 10012G18KT 9999 FEW060 BKN090 BKN200 621109
QNH3008INS 
     BECMG 2400/2401 12009KT 9999 OVC050 621109 QNH3005INS 
     TEMPO 2407/2411 8000 -SHRA OVC030 
     BECMG 2412/2413 08012KT 9999 OVC015 621109 QNH2997INS 
     BECMG 2417/2418 08012G18KT 9999 OVC020 621109 QNH2983INS 
     BECMG 2422/2423 09012G18KT 3200 -TSRA OVC020CB QNH2983INS TX21/2321Z
TN12/2411Z